Time;durP1;ratioP1;P1;durP2;ratioP2;P2;SDS_P1;SDS_P2;PMS_P1;PMS_P2;Temp;Humidity;BMP_temperature;BMP_pressure;BME280_temperature;BME280_humidity;BME280_pressure;Samples;Min_cycle;Max_cycle;Signal;HPM_P1;HPM_P2
2023/12/03 00:02:29;;;;;;;;;;;;;;;16.67;41.20;99862.06;10284085;28;1967;-70
2023/12/03 00:07:25;;;;;;;;;;;;;;;16.63;41.31;99856.03;10284627;28;849;-70
2023/12/03 00:12:21;;;;;;;;;;;;;;;16.66;41.42;99868.22;10284497;28;809;-70
2023/12/03 00:17:17;;;;;;;;;;;;;;;16.64;41.36;99859.56;10283249;28;878;-70
2023/12/03 00:22:13;;;;;;;;;;;;;;;16.65;41.45;99848.09;10291462;28;1898;-70
2023/12/03 00:27:09;;;;;;;;;;;;;;;16.65;41.10;99856.84;10291468;28;1052;-70
2023/12/03 00:32:05;;;;;;;;;;;;;;;16.63;41.28;99857.81;10291262;28;783;-70
2023/12/03 00:37:00;;;;;;;;;;;;;;;16.60;41.23;99856.16;10292160;28;1340;-70
2023/12/03 00:41:56;;;;;;;;;;;;;;;16.63;41.29;99852.56;10290814;28;874;-70
2023/12/03 00:46:52;;;;;;;;;;;;;;;16.61;41.23;99860.53;10290606;28;1975;-70
2023/12/03 00:51:48;;;;;;;;;;;;;;;16.62;41.00;99869.28;10290505;28;787;-70
2023/12/03 00:56:44;;;;;;;;;;;;;;;16.61;41.36;99867.53;10290915;28;798;-70
2023/12/03 01:01:40;;;;;;;;;;;;;;;16.60;41.06;99865.84;10290946;28;767;-70
2023/12/03 01:06:36;;;;;;;;;;;;;;;16.57;41.14;99860.69;10290119;28;1906;-70
2023/12/03 01:11:32;;;;;;;;;;;;;;;16.59;41.39;99872.03;10289785;28;777;-70
2023/12/03 01:16:28;;;;;;;;;;;;;;;16.58;40.99;99875.56;10289519;28;866;-70
2023/12/03 01:21:24;;;;;;;;;;;;;;;16.55;41.11;99881.78;10289359;28;886;-70
2023/12/03 01:26:19;;;;;;;;;;;;;;;16.55;41.38;99889.69;10289676;28;1929;-70
2023/12/03 01:31:16;;;;;;;;;;;;;;;16.56;41.06;99890.56;10287924;28;814;-70
2023/12/03 01:36:12;;;;;;;;;;;;;;;16.55;41.12;99899.34;10289646;28;1077;-70
2023/12/03 01:41:07;;;;;;;;;;;;;;;16.54;41.19;99911.66;10288569;28;1390;-70
2023/12/03 01:46:03;;;;;;;;;;;;;;;16.52;41.02;99902.94;10288519;28;1910;-70
2023/12/03 01:50:59;;;;;;;;;;;;;;;16.52;40.93;99910.84;10288266;28;811;-70
2023/12/03 01:55:55;;;;;;;;;;;;;;;16.53;41.15;99917.84;10288124;28;884;-70
2023/12/03 02:00:51;;;;;;;;;;;;;;;16.52;40.88;99926.63;10287909;28;937;-70
2023/12/03 02:05:47;;;;;;;;;;;;;;;16.53;40.94;99930.13;10287638;28;1897;-70
2023/12/03 02:10:43;;;;;;;;;;;;;;;16.52;40.72;99931.03;10287487;28;878;-70
2023/12/03 02:15:38;;;;;;;;;;;;;;;16.51;40.61;99939.84;10287872;28;854;-70
2023/12/03 02:20:34;;;;;;;;;;;;;;;16.49;40.46;99936.41;10287179;28;850;-69
2023/12/03 02:25:30;;;;;;;;;;;;;;;16.49;41.01;99936.41;10286820;28;1902;-70
2023/12/03 02:30:26;;;;;;;;;;;;;;;16.49;40.66;99945.16;10286079;28;917;-70
2023/12/03 02:35:22;;;;;;;;;;;;;;;16.47;40.81;99952.25;10286282;28;1306;-69
2023/12/03 02:40:18;;;;;;;;;;;;;;;16.50;40.53;99954.75;10285648;28;834;-70
2023/12/03 02:45:14;;;;;;;;;;;;;;;16.44;40.65;99950.56;10286378;28;1909;-70
2023/12/03 02:50:09;;;;;;;;;;;;;;;16.47;40.90;99959.28;10286563;28;838;-70
2023/12/03 02:55:05;;;;;;;;;;;;;;;16.46;40.92;99947.91;10285722;28;964;-70
2023/12/03 03:00:01;;;;;;;;;;;;;;;16.48;40.83;99960.97;10286227;28;763;-70
2023/12/03 03:04:57;;;;;;;;;;;;;;;16.43;40.93;99959.38;10285381;28;1890;-69
2023/12/03 03:09:53;;;;;;;;;;;;;;;16.38;40.64;99963.94;10285321;28;858;-70
2023/12/03 03:14:49;;;;;;;;;;;;;;;16.34;40.94;99964.94;10285786;28;823;-70
2023/12/03 03:19:45;;;;;;;;;;;;;;;16.30;40.84;99967.75;10285035;28;855;-70
2023/12/03 03:24:41;;;;;;;;;;;;;;;16.26;40.78;99963.50;10285379;28;1897;-70
2023/12/03 03:29:37;;;;;;;;;;;;;;;16.21;40.55;99961.88;10285346;28;917;-70
2023/12/03 03:34:32;;;;;;;;;;;;;;;16.14;41.09;99963.00;10284407;28;1105;-70
2023/12/03 03:39:28;;;;;;;;;;;;;;;16.12;41.07;99966.59;10285127;28;870;-70
2023/12/03 03:44:24;;;;;;;;;;;;;;;16.07;41.50;99968.50;10284995;28;1977;-70
2023/12/03 03:49:20;;;;;;;;;;;;;;;16.08;41.47;99967.59;10284378;28;818;-69
2023/12/03 03:54:16;;;;;;;;;;;;;;;16.18;41.55;99969.00;10289311;28;974;-69
2023/12/03 03:59:12;;;;;;;;;;;;;;;16.20;41.46;99977.72;10293149;28;826;-70
2023/12/03 04:04:08;;;;;;;;;;;;;;;16.18;41.64;99977.75;10292928;28;1894;-69
2023/12/03 04:09:04;;;;;;;;;;;;;;;16.23;41.59;99982.88;10291919;28;1194;-69
2023/12/03 04:14:00;;;;;;;;;;;;;;;16.27;41.66;99992.38;10292050;28;806;-70
2023/12/03 04:18:56;;;;;;;;;;;;;;;16.27;41.71;99996.75;10291802;28;789;-70
2023/12/03 04:23:52;;;;;;;;;;;;;;;16.34;41.37;99996.50;10292129;28;1902;-70
2023/12/03 04:28:47;;;;;;;;;;;;;;;16.41;41.13;100007.72;10292052;28;901;-70
2023/12/03 04:33:43;;;;;;;;;;;;;;;16.45;41.12;100001.41;10290940;28;1365;-70
2023/12/03 04:38:39;;;;;;;;;;;;;;;16.50;41.14;100003.91;10291069;28;798;-70
2023/12/03 04:43:35;;;;;;;;;;;;;;;16.54;41.16;100008.16;10290810;28;1972;-70
2023/12/03 04:48:31;;;;;;;;;;;;;;;16.52;40.95;100013.47;10291254;28;834;-70
2023/12/03 04:53:27;;;;;;;;;;;;;;;16.57;40.91;100008.91;10291096;28;921;-70
2023/12/03 04:58:23;;;;;;;;;;;;;;;16.57;41.14;100016.81;10290320;28;874;-70
2023/12/03 05:03:19;;;;;;;;;;;;;;;16.57;40.92;100010.69;10289214;28;1902;-70
2023/12/03 05:08:15;;;;;;;;;;;;;;;16.60;41.02;100010.56;10289334;28;857;-70
2023/12/03 05:13:10;;;;;;;;;;;;;;;16.63;40.90;100005.19;10289749;28;767;-69
2023/12/03 05:18:06;;;;;;;;;;;;;;;16.61;40.77;100010.53;10288911;28;1017;-70
2023/12/03 05:23:02;;;;;;;;;;;;;;;16.65;40.81;100016.53;10289323;28;1961;-70
2023/12/03 05:27:58;;;;;;;;;;;;;;;16.63;40.75;100016.59;10289190;28;814;-70
2023/12/03 05:32:54;;;;;;;;;;;;;;;16.65;40.75;100021.81;10288976;28;1489;-69
2023/12/03 05:37:50;;;;;;;;;;;;;;;16.68;40.70;100031.38;10289169;28;885;-70
2023/12/03 05:42:46;;;;;;;;;;;;;;;16.65;41.01;100032.34;10289160;28;1914;-70
2023/12/03 05:47:42;;;;;;;;;;;;;;;16.68;40.92;100042.75;10288517;28;764;-70
2023/12/03 05:52:37;;;;;;;;;;;;;;;16.68;40.91;100036.63;10288870;28;894;-70
2023/12/03 05:57:33;;;;;;;;;;;;;;;16.66;40.98;100039.31;10288098;28;826;-69
2023/12/03 06:02:29;;;;;;;;;;;;;;;16.68;40.97;100044.53;10288455;28;1965;-70
2023/12/03 06:07:25;;;;;;;;;;;;;;;16.69;40.80;100049.75;10288223;28;981;-70
2023/12/03 06:12:21;;;;;;;;;;;;;;;16.65;40.82;100045.50;10287421;28;947;-70
2023/12/03 06:17:17;;;;;;;;;;;;;;;16.69;40.99;100048.88;10286172;28;849;-70
2023/12/03 06:22:13;;;;;;;;;;;;;;;16.67;40.77;100055.97;10287496;28;881;-71
2023/12/03 06:27:09;;;;;;;;;;;;;;;16.69;40.92;100051.50;10286231;28;1977;-70
2023/12/03 06:32:05;;;;;;;;;;;;;;;16.71;41.02;100055.81;10286454;28;884;-70
2023/12/03 06:37:02;;;;;;;;;;;;;;;16.74;41.00;100062.72;10286612;28;1291;-70
2023/12/03 06:41:58;;;;;;;;;;;;;;;16.76;40.90;100067.03;10286726;28;790;-70
2023/12/03 06:46:54;;;;;;;;;;;;;;;16.76;40.94;100069.66;10285770;28;1955;-70
2023/12/03 06:51:50;;;;;;;;;;;;;;;16.76;40.73;100066.19;10285928;28;827;-71
2023/12/03 06:56:45;;;;;;;;;;;;;;;16.80;40.57;100075.75;10286144;28;898;-68
2023/12/03 07:01:41;;;;;;;;;;;;;;;16.75;41.14;100086.38;10285462;28;968;-70
2023/12/03 07:06:37;;;;;;;;;;;;;;;16.79;41.06;100088.06;10285094;28;1897;-73
2023/12/03 07:11:33;;;;;;;;;;;;;;;16.80;41.07;100087.13;10284446;28;927;-69
2023/12/03 07:16:29;;;;;;;;;;;;;;;16.80;41.01;100100.28;10285495;28;866;-70
2023/12/03 07:21:25;;;;;;;;;;;;;;;16.78;40.93;100102.09;10284696;28;838;-71
2023/12/03 07:26:21;;;;;;;;;;;;;;;16.79;40.91;100103.84;10284871;28;1894;-70
2023/12/03 07:31:17;;;;;;;;;;;;;;;16.74;41.08;100105.75;10284277;28;1004;-70
2023/12/03 07:36:12;;;;;;;;;;;;;;;16.77;40.98;100102.16;10284005;28;1049;-70
2023/12/03 07:41:08;;;;;;;;;;;;;;;16.77;40.68;100105.66;10284519;28;1071;-70
2023/12/03 07:46:04;;;;;;;;;;;;;;;16.77;40.51;100110.03;10284287;28;1980;-74
2023/12/03 07:51:00;;;;;;;;;;;;;;;16.78;40.46;100101.25;10284150;28;771;-71
2023/12/03 07:55:56;;;;;;;;;;;;;;;16.77;40.58;100120.56;10283972;28;845;-70
2023/12/03 08:00:52;;;;;;;;;;;;;;;16.80;40.73;100109.97;10284653;28;810;-71
2023/12/03 08:05:48;;;;;;;;;;;;;;;16.77;40.55;100118.81;10284581;28;1956;-71
2023/12/03 08:10:44;;;;;;;;;;;;;;;16.79;41.00;100126.66;10283738;28;945;-70
2023/12/03 08:15:39;;;;;;;;;;;;;;;16.77;40.94;100133.72;10283653;28;867;-71
2023/12/03 08:20:35;;;;;;;;;;;;;;;16.77;40.52;100131.09;10284865;28;862;-73
2023/12/03 08:25:31;;;;;;;;;;;;;;;16.77;41.23;100142.53;10284469;28;1945;-73
2023/12/03 08:30:27;;;;;;;;;;;;;;;16.79;41.11;100145.97;10284006;28;842;-70
2023/12/03 08:35:23;;;;;;;;;;;;;;;16.78;41.05;100154.75;10283332;28;1357;-71
2023/12/03 08:40:19;;;;;;;;;;;;;;;16.85;40.70;100158.91;10286239;28;885;-71
2023/12/03 08:45:15;;;;;;;;;;;;;;;16.80;41.67;100166.09;10291372;28;1898;-70
2023/12/03 08:50:11;;;;;;;;;;;;;;;16.78;41.20;100170.56;10290995;28;918;-71
2023/12/03 08:55:07;;;;;;;;;;;;;;;16.83;41.14;100180.94;10290803;28;869;-74
2023/12/03 09:00:07;;;;;;;;;;;;;;;16.83;41.02;100178.31;10290023;28;957;-70
2023/12/03 09:05:03;;;;;;;;;;;;;;;16.78;41.21;100181.09;10288705;28;1955;-70
2023/12/03 09:09:59;;;;;;;;;;;;;;;16.84;41.16;100187.91;10290230;28;965;-70
2023/12/03 09:14:56;;;;;;;;;;;;;;;16.81;41.20;100180.13;10290110;28;903;-70
2023/12/03 09:19:51;;;;;;;;;;;;;;;16.81;41.15;100191.50;10289391;28;909;-70
2023/12/03 09:24:48;;;;;;;;;;;;;;;16.84;41.05;100178.25;10289118;28;1890;-70
2023/12/03 09:29:44;;;;;;;;;;;;;;;16.81;40.83;100174.84;10289049;28;913;-70
2023/12/03 09:34:40;;;;;;;;;;;;;;;16.86;41.10;100181.69;10288904;28;1309;-70
2023/12/03 09:39:35;;;;;;;;;;;;;;;16.86;40.90;100180.84;10289727;28;933;-71
2023/12/03 09:44:31;;;;;;;;;;;;;;;16.89;41.07;100177.25;10288382;28;1963;-72
2023/12/03 09:49:27;;;;;;;;;;;;;;;16.91;40.84;100193.84;10288521;28;759;-71
2023/12/03 09:54:23;;;;;;;;;;;;;;;16.91;41.13;100202.63;10288585;28;931;-70
2023/12/03 09:59:19;;;;;;;;;;;;;;;16.90;41.26;100190.38;10288426;28;877;-70
2023/12/03 10:04:15;;;;;;;;;;;;;;;16.97;40.93;100198.91;10287753;28;1953;-70
2023/12/03 10:09:11;;;;;;;;;;;;;;;16.91;41.15;100201.75;10287999;28;870;-70
2023/12/03 10:14:07;;;;;;;;;;;;;;;16.92;41.21;100201.69;10287160;28;1001;-69
2023/12/03 10:19:03;;;;;;;;;;;;;;;16.91;41.05;100194.72;10287003;28;981;-69
2023/12/03 10:24:00;;;;;;;;;;;;;;;16.92;41.18;100199.06;10286526;28;1907;-69
2023/12/03 10:28:56;;;;;;;;;;;;;;;16.98;40.83;100200.66;10286695;28;862;-70
2023/12/03 10:33:52;;;;;;;;;;;;;;;16.98;41.15;100196.25;10286194;28;1433;-71
2023/12/03 10:38:48;;;;;;;;;;;;;;;16.97;40.96;100183.13;10285932;28;794;-70
2023/12/03 10:43:44;;;;;;;;;;;;;;;17.02;40.86;100187.31;10286047;28;1914;-70
2023/12/03 10:48:40;;;;;;;;;;;;;;;16.97;41.06;100183.13;10286543;28;819;-70
2023/12/03 10:53:36;;;;;;;;;;;;;;;17.00;40.98;100180.38;10286385;28;766;-70
2023/12/03 10:58:32;;;;;;;;;;;;;;;17.03;40.92;100185.56;10286160;28;856;-69
2023/12/03 11:03:28;;;;;;;;;;;;;;;17.02;40.93;100181.19;10283990;28;1891;-71
2023/12/03 11:08:24;;;;;;;;;;;;;;;17.01;41.07;100169.81;10285188;28;913;-70
2023/12/03 11:13:20;;;;;;;;;;;;;;;17.05;40.98;100173.19;10285211;28;787;-70
2023/12/03 11:18:16;;;;;;;;;;;;;;;17.06;41.14;100177.56;10284941;28;1007;-70
2023/12/03 11:23:12;;;;;;;;;;;;;;;17.09;40.84;100174.81;10284702;28;1898;-73
2023/12/03 11:28:08;;;;;;;;;;;;;;;17.09;41.02;100165.13;10285236;28;874;-70
2023/12/03 11:33:04;;;;;;;;;;;;;;;17.15;40.96;100158.78;10284537;28;1237;-70
2023/12/03 11:38:00;;;;;;;;;;;;;;;17.30;40.97;100160.91;10284534;28;770;-70
2023/12/03 11:42:56;;;;;;;;;;;;;;;17.30;41.09;100163.53;10284814;28;1969;-70
2023/12/03 11:47:52;;;;;;;;;;;;;;;17.30;40.97;100158.28;10284792;28;956;-71
2023/12/03 11:52:48;;;;;;;;;;;;;;;17.31;40.96;100165.25;10284661;28;935;-71
2023/12/03 11:57:44;;;;;;;;;;;;;;;17.30;41.09;100163.53;10284033;28;787;-70
2023/12/03 12:02:40;;;;;;;;;;;;;;;17.31;41.07;100157.34;10283846;28;1964;-70
2023/12/03 12:07:35;;;;;;;;;;;;;;;17.29;40.89;100159.19;10284579;28;884;-70
2023/12/03 12:12:31;;;;;;;;;;;;;;;17.36;40.98;100158.97;10283480;28;1040;-70
2023/12/03 12:17:27;;;;;;;;;;;;;;;17.39;40.82;100161.50;10292333;28;957;-71
2023/12/03 12:22:23;;;;;;;;;;;;;;;17.39;40.79;100148.31;10291445;28;912;-71
2023/12/03 12:27:20;;;;;;;;;;;;;;;17.36;40.96;100146.66;10290659;28;1882;-70
2023/12/03 12:32:16;;;;;;;;;;;;;;;17.36;40.83;100146.66;10291153;28;857;-73
2023/12/03 12:37:12;;;;;;;;;;;;;;;17.37;41.15;100143.13;10292003;28;1411;-73
2023/12/03 12:42:07;;;;;;;;;;;;;;;17.44;40.96;100128.78;10290480;28;762;-70
2023/12/03 12:47:03;;;;;;;;;;;;;;;17.49;40.77;100128.63;10289954;28;1979;-71
2023/12/03 12:51:59;;;;;;;;;;;;;;;17.51;40.90;100121.53;10290459;28;778;-72
2023/12/03 12:56:55;;;;;;;;;;;;;;;17.51;40.77;100118.91;10290800;28;858;-71
2023/12/03 13:01:53;;;;;;;;;;;;;;;17.58;40.79;100109.88;10290676;28;802;-70
2023/12/03 13:06:49;;;;;;;;;;;;;;;17.66;40.71;100106.94;10290487;28;1945;-70
2023/12/03 13:11:45;;;;;;;;;;;;;;;17.75;40.56;100098.69;10289722;28;799;-70
2023/12/03 13:16:40;;;;;;;;;;;;;;;17.77;40.56;100093.38;10290116;28;837;-71
2023/12/03 13:21:36;;;;;;;;;;;;;;;17.74;40.77;100082.00;10289962;28;845;-71
2023/12/03 13:26:32;;;;;;;;;;;;;;;17.88;40.38;100072.75;10287890;28;1894;-71
2023/12/03 13:31:29;;;;;;;;;;;;;;;17.88;40.47;100078.03;10288843;28;1021;-70
2023/12/03 13:36:25;;;;;;;;;;;;;;;17.84;40.70;100081.69;10288809;28;1766;-70
2023/12/03 13:41:22;;;;;;;;;;;;;;;17.75;40.97;100081.09;10288526;28;785;-71
2023/12/03 13:46:18;;;;;;;;;;;;;;;17.62;41.04;100073.69;10288294;28;1914;-69
2023/12/03 13:51:14;;;;;;;;;;;;;;;17.61;41.28;100077.28;10288827;28;854;-70
2023/12/03 13:56:11;;;;;;;;;;;;;;;17.57;41.31;100075.66;10288015;28;810;-70
2023/12/03 14:01:07;;;;;;;;;;;;;;;17.55;41.17;100073.06;10288350;28;1684;-70
2023/12/03 14:06:05;;;;;;;;;;;;;;;17.58;41.20;100077.34;10287005;28;1894;-71
2023/12/03 14:11:01;;;;;;;;;;;;;;;17.56;41.39;100063.41;10288227;28;889;-70
2023/12/03 14:15:57;;;;;;;;;;;;;;;17.53;41.32;100059.09;10288352;28;885;-69
2023/12/03 14:20:53;;;;;;;;;;;;;;;17.51;41.55;100058.28;10287224;28;973;-69
2023/12/03 14:25:49;;;;;;;;;;;;;;;17.47;41.71;100048.75;10287006;28;1894;-70
2023/12/03 14:30:45;;;;;;;;;;;;;;;17.48;41.71;100056.63;10287513;28;764;-70
2023/12/03 14:35:41;;;;;;;;;;;;;;;17.46;41.62;100049.69;10286207;28;1315;-70
2023/12/03 14:40:37;;;;;;;;;;;;;;;17.43;41.66;100055.09;10287104;28;863;-70
2023/12/03 14:45:33;;;;;;;;;;;;;;;17.41;41.56;100056.91;10286207;28;1914;-70
2023/12/03 14:50:28;;;;;;;;;;;;;;;17.39;41.72;100062.22;10286369;28;845;-70
2023/12/03 14:55:24;;;;;;;;;;;;;;;17.37;41.92;100055.28;10286605;28;891;-70
2023/12/03 15:00:20;;;;;;;;;;;;;;;17.28;42.09;100053.84;10285429;28;984;-71
2023/12/03 15:05:16;;;;;;;;;;;;;;;17.21;42.27;100062.88;10285584;28;1894;-71
2023/12/03 15:10:12;;;;;;;;;;;;;;;17.13;42.07;100063.16;10286090;28;869;-70
2023/12/03 15:15:08;;;;;;;;;;;;;;;17.12;42.06;100064.09;10285363;28;853;-70
2023/12/03 15:20:04;;;;;;;;;;;;;;;17.13;42.19;100064.94;10285169;28;802;-70
2023/12/03 15:25:00;;;;;;;;;;;;;;;17.08;42.03;100059.81;10285188;28;1890;-70
2023/12/03 15:29:56;;;;;;;;;;;;;;;17.11;42.19;100061.50;10285505;28;826;-70
2023/12/03 15:34:51;;;;;;;;;;;;;;;17.12;42.17;100061.44;10285421;28;1070;-70
2023/12/03 15:39:47;;;;;;;;;;;;;;;17.13;42.18;100068.44;10285241;28;799;-70
2023/12/03 15:44:43;;;;;;;;;;;;;;;17.18;41.89;100068.28;10284493;28;1902;-70
2023/12/03 15:49:40;;;;;;;;;;;;;;;17.20;41.67;100055.91;10290924;28;764;-71
2023/12/03 15:54:36;;;;;;;;;;;;;;;17.18;41.83;100061.22;10297884;28;869;-70
2023/12/03 15:59:32;;;;;;;;;;;;;;;17.26;41.83;100061.81;10298389;28;849;-70
2023/12/03 16:04:28;;;;;;;;;;;;;;;17.24;41.91;100047.84;10298253;28;1897;-70
2023/12/03 16:09:24;;;;;;;;;;;;;;;17.24;41.84;100047.84;10297685;28;803;-70
2023/12/03 16:14:20;;;;;;;;;;;;;;;17.29;41.63;100045.91;10297582;28;956;-70
2023/12/03 16:19:15;;;;;;;;;;;;;;;17.24;41.84;100039.94;10297372;28;929;-70
2023/12/03 16:24:11;;;;;;;;;;;;;;;17.27;41.69;100026.66;10297352;28;1956;-69
2023/12/03 16:29:07;;;;;;;;;;;;;;;17.31;41.60;100019.50;10297364;28;763;-70
2023/12/03 16:34:03;;;;;;;;;;;;;;;17.27;41.86;100017.91;10297369;28;1236;-73
2023/12/03 16:38:59;;;;;;;;;;;;;;;17.28;41.87;100017.81;10297184;28;803;-71
2023/12/03 16:43:55;;;;;;;;;;;;;;;17.28;41.81;100019.59;10296894;28;1963;-71
2023/12/03 16:48:53;;;;;;;;;;;;;;;17.27;41.91;100015.25;10297634;28;863;-71
2023/12/03 16:53:49;;;;;;;;;;;;;;;17.30;41.69;99994.06;10297092;28;769;-73
2023/12/03 16:58:45;;;;;;;;;;;;;;;17.33;41.87;99983.41;10295757;28;912;-70
2023/12/03 17:03:41;;;;;;;;;;;;;;;17.36;41.65;99978.03;10289438;28;1953;-70
2023/12/03 17:08:40;;;;;;;;;;;;;;;17.33;41.79;99974.66;10290133;28;849;-70
2023/12/03 17:13:37;;;;;;;;;;;;;;;17.34;41.72;99963.19;10289971;28;851;-71
2023/12/03 17:18:34;;;;;;;;;;;;;;;17.38;41.80;99970.94;10291034;28;948;-71
2023/12/03 17:23:29;;;;;;;;;;;;;;;17.37;41.96;99965.69;10289434;28;1953;-71
2023/12/03 17:28:25;;;;;;;;;;;;;;;17.37;41.70;99956.03;10289487;28;798;-70
2023/12/03 17:33:22;;;;;;;;;;;;;;;17.36;41.83;99964.84;10289365;28;1113;-70
2023/12/03 17:38:18;;;;;;;;;;;;;;;17.37;41.78;99973.59;10288990;28;976;-74
2023/12/03 17:43:14;;;;;;;;;;;;;;;17.36;41.97;99972.75;10288820;28;1906;-70
2023/12/03 17:48:11;;;;;;;;;;;;;;;17.40;41.77;99962.97;10288583;28;878;-70
2023/12/03 17:53:07;;;;;;;;;;;;;;;17.40;41.62;99948.03;10289156;28;790;-69
2023/12/03 17:58:03;;;;;;;;;;;;;;;17.40;41.70;99955.06;10288201;28;877;-70
2023/12/03 18:03:03;;;;;;;;;;;;;;;17.41;41.56;99954.13;10288199;28;1951;-69
2023/12/03 18:07:59;;;;;;;;;;;;;;;17.37;41.66;99944.63;10287850;28;822;-70
2023/12/03 18:12:55;;;;;;;;;;;;;;;17.35;41.77;99941.22;10288114;28;918;-69
2023/12/03 18:17:51;;;;;;;;;;;;;;;17.38;41.64;99934.03;10287463;28;893;-70
2023/12/03 18:22:47;;;;;;;;;;;;;;;17.39;41.46;99929.63;10287216;28;1949;-69
2023/12/03 18:27:43;;;;;;;;;;;;;;;17.38;41.46;99925.28;10287565;28;775;-70
2023/12/03 18:32:39;;;;;;;;;;;;;;;17.39;41.58;99926.97;10286576;28;1045;-70
2023/12/03 18:37:34;;;;;;;;;;;;;;;17.40;41.49;99926.09;10287406;28;830;-70
2023/12/03 18:42:30;;;;;;;;;;;;;;;17.40;41.58;99916.41;10287135;28;892;-70
2023/12/03 18:47:26;;;;;;;;;;;;;;;17.42;41.27;99913.69;10287297;28;1994;-70
2023/12/03 18:52:22;;;;;;;;;;;;;;;17.39;41.32;99919.09;10286743;28;818;-70
2023/12/03 18:57:18;;;;;;;;;;;;;;;17.41;41.50;99909.34;10285983;28;885;-70
2023/12/03 19:02:14;;;;;;;;;;;;;;;17.43;41.32;99907.50;10286341;28;799;-70
2023/12/03 19:07:11;;;;;;;;;;;;;;;17.42;41.26;99903.16;10286243;28;2025;-70
2023/12/03 19:12:07;;;;;;;;;;;;;;;17.40;41.38;99913.75;10284823;28;972;-70
2023/12/03 19:17:03;;;;;;;;;;;;;;;17.41;41.16;99918.09;10285336;28;874;-70
2023/12/03 19:21:59;;;;;;;;;;;;;;;17.40;41.14;99910.28;10284944;28;1256;-69
2023/12/03 19:26:56;;;;;;;;;;;;;;;17.40;41.27;99891.84;10284669;28;1949;-70
2023/12/03 19:31:54;;;;;;;;;;;;;;;17.43;41.18;99894.34;10284902;28;1018;-69
2023/12/03 19:36:50;;;;;;;;;;;;;;;17.44;41.31;99885.50;10283943;28;1385;-69
2023/12/03 19:41:45;;;;;;;;;;;;;;;17.42;41.39;99868.88;10283984;28;740;-70
2023/12/03 19:46:41;;;;;;;;;;;;;;;17.43;41.31;99868.00;10284637;28;1914;-70
2023/12/03 19:51:37;;;;;;;;;;;;;;;17.45;41.18;99855.63;10285206;28;889;-70
2023/12/03 19:56:33;;;;;;;;;;;;;;;17.42;41.21;99851.34;10284356;28;906;-70
2023/12/03 20:01:29;;;;;;;;;;;;;;;17.44;41.41;99845.97;10284248;28;981;-70
2023/12/03 20:06:25;;;;;;;;;;;;;;;17.47;41.10;99830.03;10284741;28;1901;-70
2023/12/03 20:11:21;;;;;;;;;;;;;;;17.45;41.14;99830.13;10284836;28;845;-69
2023/12/03 20:16:17;;;;;;;;;;;;;;;17.45;41.25;99818.72;10284537;28;870;-70
2023/12/03 20:21:13;;;;;;;;;;;;;;;17.44;41.39;99822.25;10284946;28;830;-70
2023/12/03 20:26:09;;;;;;;;;;;;;;;17.44;41.11;99802.03;10283720;28;1893;-70
2023/12/03 20:31:05;;;;;;;;;;;;;;;17.44;41.38;99788.00;10284327;28;831;-70
2023/12/03 20:36:00;;;;;;;;;;;;;;;17.42;41.45;99777.56;10286676;28;1265;-69
2023/12/03 20:40:56;;;;;;;;;;;;;;;17.40;41.34;99765.34;10292816;28;857;-69
2023/12/03 20:45:53;;;;;;;;;;;;;;;17.38;41.44;99746.97;10291625;28;1909;-70
2023/12/03 20:50:49;;;;;;;;;;;;;;;17.35;41.54;99733.94;10291429;28;869;-70
2023/12/03 20:55:44;;;;;;;;;;;;;;;17.34;41.33;99724.28;10291519;28;787;-69
2023/12/03 21:00:40;;;;;;;;;;;;;;;17.33;41.54;99716.47;10290508;28;861;-70
2023/12/03 21:05:36;;;;;;;;;;;;;;;17.31;41.52;99712.09;10289704;28;1959;-70
2023/12/03 21:10:32;;;;;;;;;;;;;;;17.30;41.36;99710.41;10290727;28;774;-70
2023/12/03 21:15:28;;;;;;;;;;;;;;;17.29;41.49;99706.06;10289882;28;957;-69
2023/12/03 21:20:24;;;;;;;;;;;;;;;17.24;41.37;99700.13;10289775;28;864;-70
2023/12/03 21:25:20;;;;;;;;;;;;;;;17.25;41.45;99693.94;10290054;28;1902;-70
2023/12/03 21:30:15;;;;;;;;;;;;;;;17.25;41.51;99687.81;10290197;28;846;-70
2023/12/03 21:35:12;;;;;;;;;;;;;;;17.22;41.43;99694.06;10289384;28;1334;-70
2023/12/03 21:40:09;;;;;;;;;;;;;;;17.17;41.51;99692.53;10288958;28;1072;-70
2023/12/03 21:45:05;;;;;;;;;;;;;;;17.15;41.60;99695.22;10289435;28;1902;-70
2023/12/03 21:50:01;;;;;;;;;;;;;;;17.14;41.56;99693.53;10289676;28;925;-70
2023/12/03 21:54:57;;;;;;;;;;;;;;;17.13;41.80;99697.06;10288973;28;989;-69
2023/12/03 21:59:53;;;;;;;;;;;;;;;17.09;41.67;99696.34;10288827;28;881;-70
2023/12/03 22:04:49;;;;;;;;;;;;;;;17.05;41.63;99693.88;10288584;28;1906;-69
2023/12/03 22:09:45;;;;;;;;;;;;;;;17.04;41.98;99698.31;10288179;28;984;-70
2023/12/03 22:14:41;;;;;;;;;;;;;;;17.04;41.98;99692.19;10287838;28;811;-70
2023/12/03 22:19:37;;;;;;;;;;;;;;;17.03;41.90;99690.50;10288064;28;835;-70
2023/12/03 22:24:33;;;;;;;;;;;;;;;16.97;41.85;99673.13;10287268;28;1901;-69
2023/12/03 22:29:29;;;;;;;;;;;;;;;17.00;41.76;99680.06;10287152;28;830;-70
2023/12/03 22:34:25;;;;;;;;;;;;;;;16.99;41.73;99667.81;10286730;28;1299;-69
2023/12/03 22:39:21;;;;;;;;;;;;;;;16.96;41.93;99660.91;10286120;28;1465;-70
2023/12/03 22:44:17;;;;;;;;;;;;;;;16.99;41.95;99657.28;10287096;28;1922;-70
2023/12/03 22:49:14;;;;;;;;;;;;;;;16.98;41.80;99637.16;10286940;28;922;-70
2023/12/03 22:54:09;;;;;;;;;;;;;;;16.95;41.96;99637.25;10286128;28;924;-69
2023/12/03 22:59:05;;;;;;;;;;;;;;;16.95;42.02;99609.19;10285798;28;799;-70
2023/12/03 23:04:01;;;;;;;;;;;;;;;16.98;41.93;99608.19;10285738;28;1898;-69
2023/12/03 23:08:57;;;;;;;;;;;;;;;16.94;41.76;99593.44;10285075;28;913;-69
2023/12/03 23:13:53;;;;;;;;;;;;;;;16.95;41.97;99589.88;10285477;28;853;-70
2023/12/03 23:18:49;;;;;;;;;;;;;;;16.94;41.87;99585.53;10286034;28;985;-70
2023/12/03 23:23:45;;;;;;;;;;;;;;;16.90;41.86;99569.03;10284486;28;1951;-69
2023/12/03 23:28:41;;;;;;;;;;;;;;;16.93;42.10;99560.13;10285021;28;935;-70
2023/12/03 23:33:37;;;;;;;;;;;;;;;16.93;41.95;99554.88;10284967;28;1121;-70
2023/12/03 23:38:33;;;;;;;;;;;;;;;16.89;41.78;99543.59;10285329;28;826;-69
2023/12/03 23:43:28;;;;;;;;;;;;;;;16.89;41.84;99540.13;10285725;28;1977;-70
2023/12/03 23:48:24;;;;;;;;;;;;;;;16.88;41.89;99549.81;10285130;28;862;-70
2023/12/03 23:53:20;;;;;;;;;;;;;;;16.84;42.09;99522.72;10285152;28;858;-70
2023/12/03 23:58:16;;;;;;;;;;;;;;;16.83;42.06;99520.19;10284952;28;822;-70
